createdAt,value
2022-11-08T00:01:43.712Z,100.00
2022-11-08T00:04:50.109Z,100.00
2022-11-08T00:08:13.806Z,100.00
2022-11-08T00:11:37.804Z,100.00
2022-11-08T00:14:44.282Z,100.00
2022-11-08T00:17:51.946Z,100.00
2022-11-08T00:21:02.847Z,100.00
2022-11-08T00:24:08.981Z,100.00
2022-11-08T00:27:16.510Z,100.00
2022-11-08T00:30:22.819Z,100.00
2022-11-08T00:33:31.601Z,100.00
2022-11-08T00:36:37.959Z,100.00
2022-11-08T00:39:44.551Z,100.00
2022-11-08T00:42:51.106Z,100.00
2022-11-08T00:45:57.173Z,100.00
2022-11-08T00:49:05.080Z,100.00
2022-11-08T00:52:11.274Z,100.00
2022-11-08T00:55:17.529Z,100.00
2022-11-08T00:58:27.513Z,100.00
2022-11-08T01:01:34.575Z,100.00
2022-11-08T01:04:42.127Z,100.00
2022-11-08T01:07:48.410Z,100.00
2022-11-08T01:10:54.458Z,100.00
2022-11-08T01:14:01.952Z,100.00
2022-11-08T01:17:07.870Z,100.00
2022-11-08T01:20:15.413Z,100.00
2022-11-08T01:23:21.774Z,100.00
2022-11-08T01:26:29.581Z,100.00
2022-11-08T01:29:36.116Z,100.00
2022-11-08T01:32:42.306Z,100.00
2022-11-08T01:35:49.673Z,100.00
2022-11-08T01:38:57.042Z,100.00
2022-11-08T01:42:03.237Z,100.00
2022-11-08T01:45:11.810Z,100.00
2022-11-08T01:48:18.314Z,100.00
2022-11-08T01:51:30.173Z,100.00
2022-11-08T01:54:45.089Z,100.00
2022-11-08T01:57:56.244Z,100.00
2022-11-08T02:01:03.632Z,100.00
2022-11-08T02:04:09.866Z,100.00
2022-11-08T02:07:18.448Z,100.00
2022-11-08T02:10:27.973Z,100.00
2022-11-08T02:13:35.771Z,100.00
2022-11-08T02:16:41.556Z,100.00
2022-11-08T02:19:50.962Z,100.00
2022-11-08T02:23:06.234Z,100.00
2022-11-08T02:26:14.247Z,100.00
2022-11-08T02:29:25.878Z,100.00
2022-11-08T02:32:39.314Z,100.00
2022-11-08T02:35:48.091Z,100.00
2022-11-08T02:38:56.456Z,100.00
2022-11-08T02:42:04.507Z,100.00
2022-11-08T02:45:11.238Z,100.00
2022-11-08T02:48:18.204Z,100.00
2022-11-08T02:51:24.614Z,100.00
2022-11-08T02:54:30.682Z,100.00
2022-11-08T02:57:44.338Z,100.00
2022-11-08T03:00:51.545Z,100.00
2022-11-08T03:04:00.605Z,100.00
2022-11-08T03:07:07.211Z,100.00
2022-11-08T03:10:13.853Z,100.00
2022-11-08T03:13:21.616Z,100.00
2022-11-08T03:16:27.969Z,100.00
2022-11-08T03:19:34.389Z,100.00
2022-11-08T03:22:40.707Z,100.00
2022-11-08T03:25:47.030Z,100.00
2022-11-08T03:28:54.476Z,100.00
2022-11-08T03:32:00.806Z,100.00
2022-11-08T03:35:07.667Z,100.00
2022-11-08T03:38:13.428Z,100.00
2022-11-08T03:41:19.634Z,100.00
2022-11-08T03:44:27.055Z,100.00
2022-11-08T03:47:33.059Z,100.00
2022-11-08T03:50:39.190Z,100.00
2022-11-08T03:53:45.381Z,100.00
2022-11-08T03:56:51.651Z,100.00
2022-11-08T03:59:59.238Z,100.00
2022-11-08T04:03:06.135Z,100.00
2022-11-08T04:06:12.290Z,100.00
2022-11-08T04:09:21.490Z,100.00
2022-11-08T04:12:45.692Z,100.00
2022-11-08T04:15:57.126Z,100.00
2022-11-08T04:19:20.965Z,100.00
2022-11-08T04:22:27.080Z,100.00
2022-11-08T04:25:35.235Z,100.00
2022-11-08T04:28:42.622Z,100.00
2022-11-08T04:31:50.148Z,100.00
2022-11-08T04:34:55.998Z,100.00
2022-11-08T04:38:03.163Z,100.00
2022-11-08T04:41:11.948Z,100.00
2022-11-08T04:44:18.575Z,100.00
2022-11-08T04:47:25.866Z,100.00
2022-11-08T04:50:32.160Z,100.00
2022-11-08T04:53:38.413Z,100.00
2022-11-08T04:56:44.542Z,100.00
2022-11-08T04:59:52.036Z,100.00
2022-11-08T05:03:02.755Z,100.00
2022-11-08T05:06:13.361Z,100.00
2022-11-08T05:09:19.433Z,100.00
2022-11-08T05:12:25.545Z,100.00
2022-11-08T05:15:31.588Z,100.00
2022-11-08T05:18:41.728Z,100.00
2022-11-08T05:22:05.954Z,100.00
2022-11-08T05:25:11.870Z,100.00
2022-11-08T05:28:18.929Z,100.00
2022-11-08T05:31:25.320Z,100.00
2022-11-08T05:34:33.016Z,100.00
2022-11-08T05:37:43.138Z,100.00
2022-11-08T05:40:49.463Z,100.00
2022-11-08T05:43:56.732Z,100.00
2022-11-08T05:47:03.025Z,100.00
2022-11-08T05:50:12.407Z,100.00
2022-11-08T05:53:21.988Z,100.00
2022-11-08T05:56:27.898Z,100.00
2022-11-08T05:59:34.058Z,100.00
2022-11-08T06:02:40.383Z,100.00
2022-11-08T06:05:47.836Z,100.00
2022-11-08T06:08:54.767Z,100.00
2022-11-08T06:12:01.019Z,100.00
2022-11-08T06:15:09.418Z,100.00
2022-11-08T06:18:15.603Z,100.00
2022-11-08T06:21:23.631Z,100.00
2022-11-08T06:24:29.780Z,100.00
2022-11-08T06:27:36.663Z,100.00
2022-11-08T06:30:43.179Z,100.00
2022-11-08T06:33:50.431Z,100.00
2022-11-08T06:37:00.388Z,100.00
2022-11-08T06:40:07.442Z,100.00
2022-11-08T06:43:19.357Z,100.00
2022-11-08T06:46:26.300Z,100.00
2022-11-08T06:49:32.670Z,100.00
2022-11-08T06:52:40.957Z,100.00
2022-11-08T06:55:47.458Z,100.00
2022-11-08T06:58:53.532Z,100.00
2022-11-08T07:01:59.917Z,100.00
2022-11-08T07:05:06.857Z,100.00
2022-11-08T07:08:15.379Z,100.00
2022-11-08T07:11:23.296Z,100.00
2022-11-08T07:14:29.736Z,100.00
2022-11-08T07:17:38.685Z,100.00
2022-11-08T07:20:45.426Z,100.00
2022-11-08T07:23:53.136Z,100.00
2022-11-08T07:26:59.679Z,100.00
2022-11-08T07:30:07.137Z,100.00
2022-11-08T07:33:13.618Z,100.00
2022-11-08T07:36:20.058Z,100.00
2022-11-08T07:39:27.595Z,100.00
2022-11-08T07:43:04.772Z,100.00
2022-11-08T07:46:04.120Z,100.00
2022-11-08T07:49:10.605Z,100.00
2022-11-08T07:52:16.613Z,100.00
2022-11-08T07:55:24.566Z,100.00
2022-11-08T07:58:30.815Z,100.00
2022-11-08T08:01:37.529Z,100.00
2022-11-08T08:04:44.512Z,100.00
2022-11-08T08:07:50.920Z,95.89
2022-11-08T08:11:00.515Z,94.99
2022-11-08T08:14:06.859Z,97.67
2022-11-08T08:17:12.977Z,93.70
2022-11-08T08:20:19.471Z,91.69
2022-11-08T08:23:25.858Z,92.60
2022-11-08T08:26:33.702Z,92.79
2022-11-08T08:29:39.856Z,92.14
2022-11-08T08:32:47.929Z,91.25
2022-11-08T08:36:01.965Z,90.73
2022-11-08T08:39:08.837Z,87.13
2022-11-08T08:42:16.831Z,86.82
2022-11-08T08:45:23.321Z,86.10
2022-11-08T08:48:29.601Z,84.46
2022-11-08T08:51:35.936Z,83.47
2022-11-08T08:54:42.065Z,83.51
2022-11-08T08:57:50.321Z,82.59
2022-11-08T09:04:28.263Z,76.54
2022-11-08T09:07:34.985Z,77.14
2022-11-08T09:10:41.829Z,75.32
2022-11-08T09:13:49.590Z,72.80
2022-11-08T09:16:55.910Z,73.28
2022-11-08T09:20:02.046Z,74.81
2022-11-08T09:23:08.134Z,72.65
2022-11-08T09:26:14.444Z,74.06
2022-11-08T09:29:22.538Z,73.62
2022-11-08T09:32:54.099Z,75.14
2022-11-08T09:35:55.117Z,73.11
2022-11-08T09:39:01.228Z,75.61
2022-11-08T09:42:31.071Z,72.18
2022-11-08T09:45:44.657Z,75.07
2022-11-08T09:48:52.322Z,73.21
2022-11-08T09:51:59.710Z,72.96
2022-11-08T09:55:19.146Z,73.97
2022-11-08T09:58:35.626Z,72.33
2022-11-08T10:01:43.251Z,73.91
2022-11-08T10:04:56.249Z,71.63
2022-11-08T10:08:09.075Z,71.35
2022-11-08T10:11:26.493Z,66.39
2022-11-08T10:14:49.192Z,67.76
2022-11-08T10:18:22.358Z,68.79
2022-11-08T10:21:54.747Z,64.86
2022-11-08T10:25:03.144Z,65.09
2022-11-08T10:28:09.762Z,64.96
2022-11-08T10:31:16.517Z,67.31
2022-11-08T10:34:29.296Z,65.71
2022-11-08T10:37:35.624Z,66.02
2022-11-08T10:40:46.922Z,66.87
2022-11-08T10:43:59.065Z,65.39
2022-11-08T10:47:08.886Z,64.42
2022-11-08T10:50:20.974Z,63.83
2022-11-08T10:53:28.710Z,64.18
2022-11-08T10:56:56.326Z,64.78
2022-11-08T11:00:25.578Z,64.42
2022-11-08T11:03:31.789Z,64.11
2022-11-08T11:06:39.226Z,63.73
2022-11-08T11:09:45.330Z,66.34
2022-11-08T11:12:52.862Z,66.83
2022-11-08T11:16:03.458Z,64.86
2022-11-08T11:19:16.366Z,64.29
2022-11-08T11:22:30.404Z,64.79
2022-11-08T11:25:36.567Z,65.14
2022-11-08T11:29:15.999Z,69.47
2022-11-08T11:32:25.661Z,65.79
2022-11-08T11:35:45.279Z,60.18
2022-11-08T11:39:01.937Z,62.13
2022-11-08T11:42:43.848Z,57.14
2022-11-08T11:45:48.665Z,55.76
2022-11-08T11:49:02.100Z,56.38
2022-11-08T11:52:17.669Z,57.27
2022-11-08T11:55:31.070Z,57.74
2022-11-08T11:58:54.167Z,53.52
2022-11-08T12:02:23.352Z,54.42
2022-11-08T12:05:37.303Z,54.44
2022-11-08T12:09:05.311Z,55.64
2022-11-08T12:12:26.529Z,54.45
2022-11-08T12:15:39.184Z,54.16
2022-11-08T12:19:01.643Z,58.80
2022-11-08T12:22:33.555Z,62.48
2022-11-08T12:25:48.287Z,61.72
2022-11-08T12:29:20.083Z,61.90
2022-11-08T12:32:47.170Z,62.61
2022-11-08T12:36:04.625Z,65.74
2022-11-08T12:39:24.042Z,65.75
2022-11-08T12:42:51.621Z,68.32
2022-11-08T12:46:08.733Z,67.87
2022-11-08T12:49:28.910Z,66.48
2022-11-08T12:52:49.375Z,66.08
2022-11-08T12:56:00.335Z,67.79
2022-11-08T12:59:19.699Z,66.68
2022-11-08T13:02:31.552Z,64.24
2022-11-08T13:05:41.443Z,65.14
2022-11-08T13:08:54.013Z,65.30
2022-11-08T13:12:08.400Z,64.98
2022-11-08T13:15:20.827Z,63.61
2022-11-08T13:18:36.267Z,60.38
2022-11-08T13:21:43.254Z,60.93
2022-11-08T13:24:49.557Z,61.23
2022-11-08T13:27:56.514Z,62.33
2022-11-08T13:31:13.285Z,61.46
2022-11-08T13:34:46.157Z,60.20
2022-11-08T13:38:04.277Z,62.88
2022-11-08T13:41:17.688Z,60.67
2022-11-08T13:45:13.595Z,62.03
2022-11-08T13:48:37.803Z,63.88
2022-11-08T13:51:46.229Z,63.20
2022-11-08T13:54:55.272Z,63.26
2022-11-08T13:58:02.667Z,67.40
2022-11-08T14:01:10.393Z,67.37
2022-11-08T14:04:26.605Z,66.04
2022-11-08T14:07:42.097Z,66.20
2022-11-08T14:11:27.180Z,67.87
2022-11-08T14:14:44.508Z,69.64
2022-11-08T14:17:56.766Z,69.57
2022-11-08T14:21:05.148Z,65.30
2022-11-08T14:24:20.148Z,61.89
2022-11-08T14:27:38.970Z,59.78
2022-11-08T14:30:50.769Z,63.24
2022-11-08T14:33:57.866Z,71.03
2022-11-08T14:37:05.732Z,74.53
2022-11-08T14:40:24.743Z,74.30
2022-11-08T14:43:31.324Z,74.84
2022-11-08T14:46:40.934Z,74.22
2022-11-08T14:49:49.322Z,75.58
2022-11-08T14:52:55.616Z,76.68
2022-11-08T14:56:16.809Z,78.02
2022-11-08T14:59:24.910Z,82.30
2022-11-08T15:02:32.040Z,79.16
2022-11-08T15:05:42.379Z,81.83
2022-11-08T15:08:52.109Z,80.75
2022-11-08T15:12:01.663Z,81.55
2022-11-08T15:15:19.603Z,80.85
2022-11-08T15:18:33.341Z,81.91
2022-11-08T15:21:49.433Z,81.93
2022-11-08T15:25:19.579Z,81.29
2022-11-08T15:28:33.868Z,83.95
2022-11-08T15:31:44.733Z,84.46
2022-11-08T15:34:57.742Z,84.48
2022-11-08T15:38:05.967Z,83.11
2022-11-08T15:41:39.153Z,84.19
2022-11-08T15:45:06.098Z,88.05
2022-11-08T15:48:21.194Z,88.87
2022-11-08T15:51:27.343Z,89.65
2022-11-08T15:54:33.580Z,91.41
2022-11-08T15:57:43.045Z,95.13
2022-11-08T16:00:51.294Z,100.00
2022-11-08T16:03:57.477Z,100.00
2022-11-08T16:07:03.870Z,100.00
2022-11-08T16:10:11.979Z,100.00
2022-11-08T16:13:20.938Z,100.00
2022-11-08T16:16:33.985Z,100.00
2022-11-08T16:19:41.345Z,100.00
2022-11-08T16:22:47.239Z,100.00
2022-11-08T16:25:56.005Z,100.00
2022-11-08T16:29:02.012Z,100.00
2022-11-08T16:32:11.713Z,100.00
2022-11-08T16:35:18.735Z,100.00
2022-11-08T16:38:27.554Z,100.00
2022-11-08T16:41:33.340Z,100.00
2022-11-08T16:44:40.861Z,100.00
2022-11-08T16:47:51.010Z,100.00
2022-11-08T16:51:01.391Z,100.00
2022-11-08T16:54:18.691Z,100.00
2022-11-08T16:57:40.357Z,100.00
2022-11-08T17:00:47.000Z,100.00
2022-11-08T17:03:54.596Z,100.00
2022-11-08T17:07:00.523Z,100.00
2022-11-08T17:10:07.813Z,100.00
2022-11-08T17:13:15.455Z,100.00
2022-11-08T17:16:21.817Z,100.00
2022-11-08T17:19:29.248Z,100.00
2022-11-08T17:22:35.605Z,100.00
2022-11-08T17:25:44.576Z,100.00
2022-11-08T17:28:51.043Z,100.00
2022-11-08T17:31:57.130Z,100.00
2022-11-08T17:35:06.154Z,100.00
2022-11-08T17:38:12.444Z,100.00
2022-11-08T17:41:19.058Z,100.00
2022-11-08T17:44:26.239Z,100.00
2022-11-08T17:47:32.448Z,100.00
2022-11-08T17:50:40.089Z,100.00
2022-11-08T17:53:46.318Z,100.00
2022-11-08T17:56:52.486Z,100.00
2022-11-08T17:59:59.022Z,100.00
2022-11-08T18:03:08.853Z,100.00
2022-11-08T18:06:19.274Z,100.00
2022-11-08T18:09:26.433Z,100.00
2022-11-08T18:12:32.717Z,100.00
2022-11-08T18:15:38.969Z,100.00
2022-11-08T18:18:46.455Z,100.00
2022-11-08T18:21:53.889Z,100.00
2022-11-08T18:25:00.554Z,100.00
2022-11-08T18:28:07.491Z,100.00
2022-11-08T18:31:16.223Z,100.00
2022-11-08T18:34:22.601Z,100.00
2022-11-08T18:37:30.050Z,100.00
2022-11-08T18:40:36.484Z,100.00
2022-11-08T18:43:43.118Z,100.00
2022-11-08T18:46:49.335Z,100.00
2022-11-08T18:49:59.558Z,100.00
2022-11-08T18:53:09.442Z,100.00
2022-11-08T18:56:16.363Z,100.00
2022-11-08T18:59:22.357Z,100.00
2022-11-08T19:02:28.739Z,100.00
2022-11-08T19:05:35.038Z,100.00
2022-11-08T19:08:42.478Z,100.00
2022-11-08T19:11:49.413Z,100.00
2022-11-08T19:14:55.573Z,100.00
2022-11-08T19:18:01.450Z,100.00
2022-11-08T19:21:10.036Z,100.00
2022-11-08T19:24:19.301Z,100.00
2022-11-08T19:27:25.669Z,100.00
2022-11-08T19:30:31.748Z,100.00
2022-11-08T19:33:38.090Z,100.00
2022-11-08T19:36:44.480Z,100.00
2022-11-08T19:39:52.034Z,100.00
2022-11-08T19:42:58.328Z,100.00
2022-11-08T19:46:06.116Z,100.00
2022-11-08T19:49:12.207Z,100.00
2022-11-08T19:52:18.081Z,100.00
2022-11-08T19:55:25.554Z,100.00
2022-11-08T19:58:33.070Z,100.00
2022-11-08T20:01:40.290Z,100.00
2022-11-08T20:04:47.051Z,100.00
2022-11-08T20:07:53.146Z,100.00
2022-11-08T20:11:00.931Z,100.00
2022-11-08T20:14:08.336Z,100.00
2022-11-08T20:17:14.206Z,100.00
2022-11-08T20:20:20.469Z,100.00
2022-11-08T20:23:27.265Z,100.00
2022-11-08T20:26:37.514Z,100.00
2022-11-08T20:29:43.759Z,100.00
2022-11-08T20:32:49.862Z,100.00
2022-11-08T20:35:56.205Z,100.00
2022-11-08T20:39:06.646Z,100.00
2022-11-08T20:42:18.503Z,100.00
2022-11-08T20:45:24.710Z,100.00
2022-11-08T20:48:31.390Z,100.00
2022-11-08T20:51:37.936Z,100.00
2022-11-08T20:54:45.220Z,100.00
2022-11-08T20:57:52.766Z,100.00
2022-11-08T21:01:00.189Z,100.00
2022-11-08T21:04:06.378Z,100.00
2022-11-08T21:08:01.503Z,100.00
2022-11-08T21:10:43.566Z,100.00
2022-11-08T21:13:51.511Z,100.00
2022-11-08T21:17:20.879Z,100.00
2022-11-08T21:20:23.206Z,100.00
2022-11-08T21:23:29.379Z,100.00
2022-11-08T21:26:36.935Z,100.00
2022-11-08T21:29:44.469Z,100.00
2022-11-08T21:32:50.806Z,100.00
2022-11-08T21:35:57.731Z,100.00
2022-11-08T21:39:03.877Z,100.00
2022-11-08T21:42:09.992Z,100.00
2022-11-08T21:45:17.842Z,100.00
2022-11-08T21:48:23.930Z,100.00
2022-11-08T21:51:31.425Z,100.00
2022-11-08T21:54:37.950Z,100.00
2022-11-08T21:57:44.169Z,100.00
2022-11-08T22:00:53.086Z,100.00
2022-11-08T22:04:00.072Z,100.00
2022-11-08T22:07:06.714Z,100.00
2022-11-08T22:10:13.085Z,100.00
2022-11-08T22:13:19.241Z,100.00
2022-11-08T22:16:26.626Z,100.00
2022-11-08T22:19:32.933Z,100.00
2022-11-08T22:22:38.880Z,100.00
2022-11-08T22:25:44.714Z,100.00
2022-11-08T22:28:50.721Z,100.00
2022-11-08T22:31:58.094Z,100.00
2022-11-08T22:35:22.961Z,100.00
2022-11-08T22:38:28.980Z,100.00
2022-11-08T22:41:35.021Z,100.00
2022-11-08T22:44:41.119Z,100.00
2022-11-08T22:47:48.610Z,100.00
2022-11-08T22:50:55.227Z,100.00
2022-11-08T22:54:01.864Z,100.00
2022-11-08T22:57:08.070Z,100.00
2022-11-08T23:00:15.682Z,100.00
2022-11-08T23:03:24.097Z,100.00
2022-11-08T23:06:30.845Z,100.00
2022-11-08T23:09:37.314Z,100.00
2022-11-08T23:13:01.010Z,100.00
2022-11-08T23:16:24.639Z,100.00
2022-11-08T23:19:49.546Z,100.00
2022-11-08T23:23:13.266Z,100.00
2022-11-08T23:26:40.039Z,100.00
2022-11-08T23:30:03.634Z,100.00
2022-11-08T23:33:09.684Z,100.00
2022-11-08T23:36:17.442Z,100.00
2022-11-08T23:39:23.798Z,100.00
2022-11-08T23:42:46.724Z,100.00
2022-11-08T23:45:53.126Z,100.00
2022-11-08T23:48:59.500Z,100.00
2022-11-08T23:52:07.251Z,100.00
2022-11-08T23:55:13.627Z,100.00
2022-11-08T23:58:20.713Z,100.00
